createdAt,value
2018-04-23T00:00:36.730Z,20.30
2018-04-23T00:03:07.509Z,19.90
2018-04-23T00:05:38.055Z,19.80
2018-04-23T00:08:08.913Z,19.70
2018-04-23T00:10:38.565Z,19.80
2018-04-23T00:13:08.431Z,19.80
2018-04-23T00:15:39.589Z,19.00
2018-04-23T00:18:11.074Z,19.10
2018-04-23T00:20:40.913Z,19.10
2018-04-23T00:23:11.355Z,19.10
2018-04-23T00:25:41.443Z,19.20
2018-04-23T00:28:11.247Z,20.00
2018-04-23T00:30:41.644Z,19.80
2018-04-23T00:33:13.084Z,20.00
2018-04-23T00:35:43.945Z,20.30
2018-04-23T00:38:14.564Z,20.50
2018-04-23T00:40:44.277Z,20.50
2018-04-23T00:43:15.125Z,20.70
2018-04-23T00:45:45.698Z,20.70
2018-04-23T00:48:15.826Z,20.70
2018-04-23T00:50:45.806Z,20.70
2018-04-23T00:53:51.409Z,20.50
2018-04-23T00:56:21.685Z,20.20
2018-04-23T00:58:51.399Z,20.30
2018-04-23T01:01:21.293Z,20.40
2018-04-23T01:03:52.308Z,19.80
2018-04-23T01:06:22.473Z,20.60
2018-04-23T01:08:52.644Z,20.60
2018-04-23T01:11:22.755Z,20.60
2018-04-23T01:13:52.673Z,20.60
2018-04-23T01:16:23.863Z,20.60
2018-04-23T01:18:54.136Z,20.60
2018-04-23T01:21:23.830Z,20.60
2018-04-23T01:23:54.820Z,20.70
2018-04-23T01:26:25.860Z,20.70
2018-04-23T01:28:56.593Z,20.60
2018-04-23T01:31:27.420Z,20.60
2018-04-23T01:33:58.335Z,20.60
2018-04-23T01:36:29.032Z,20.60
2018-04-23T01:38:59.021Z,20.20
2018-04-23T01:41:29.616Z,20.60
2018-04-23T01:44:00.867Z,20.70
2018-04-23T01:46:30.526Z,20.70
2018-04-23T01:49:00.562Z,20.70
2018-04-23T01:51:30.932Z,20.40
2018-04-23T01:54:01.185Z,19.40
2018-04-23T01:56:31.299Z,19.30
2018-04-23T01:59:02.204Z,19.80
2018-04-23T02:01:34.133Z,19.90
2018-04-23T02:04:03.869Z,19.90
2018-04-23T02:06:34.401Z,20.10
2018-04-23T02:09:06.425Z,20.10
2018-04-23T02:11:36.919Z,19.80
2018-04-23T02:14:07.688Z,19.50
2018-04-23T02:16:37.680Z,19.50
2018-04-23T02:19:07.496Z,19.70
2018-04-23T02:21:38.877Z,20.00
2018-04-23T02:24:09.051Z,20.00
2018-04-23T02:26:39.696Z,20.10
2018-04-23T02:29:10.661Z,20.00
2018-04-23T02:31:40.544Z,19.10
2018-04-23T02:34:11.614Z,20.00
2018-04-23T02:36:41.897Z,20.00
2018-04-23T02:39:12.744Z,20.50
2018-04-23T02:41:43.932Z,19.90
2018-04-23T02:44:13.825Z,19.90
2018-04-23T02:46:43.854Z,19.40
2018-04-23T02:49:14.264Z,19.30
2018-04-23T02:51:44.052Z,19.20
2018-04-23T02:54:14.827Z,19.30
2018-04-23T02:56:44.520Z,19.30
2018-04-23T02:59:14.449Z,19.30
2018-04-23T03:01:44.456Z,19.50
2018-04-23T03:04:14.705Z,19.30
2018-04-23T03:06:44.429Z,18.90
2018-04-23T03:09:14.133Z,18.60
2018-04-23T03:11:45.827Z,18.80
2018-04-23T03:14:15.520Z,18.70
2018-04-23T03:16:45.505Z,18.90
2018-04-23T03:19:15.902Z,19.00
2018-04-23T03:21:45.510Z,19.00
2018-04-23T03:24:15.447Z,19.20
2018-04-23T03:26:45.410Z,19.40
2018-04-23T03:29:15.110Z,19.40
2018-04-23T03:31:44.795Z,19.40
2018-04-23T03:34:14.846Z,19.50
2018-04-23T03:36:44.445Z,19.30
2018-04-23T03:39:15.235Z,18.10
2018-04-23T03:41:46.560Z,18.40
2018-04-23T03:44:16.257Z,18.40
2018-04-23T03:46:47.198Z,18.70
2018-04-23T03:49:18.117Z,19.00
2018-04-23T03:51:48.066Z,19.00
2018-04-23T03:54:17.773Z,19.10
2018-04-23T03:56:48.887Z,18.80
2018-04-23T03:59:18.709Z,18.80
2018-04-23T04:01:49.584Z,18.30
2018-04-23T04:04:20.234Z,18.70
2018-04-23T04:06:50.075Z,18.80
2018-04-23T04:09:19.868Z,19.00
2018-04-23T04:11:50.688Z,18.70
2018-04-23T04:16:34.571Z,18.70
2018-04-23T04:19:04.673Z,18.10
2018-04-23T04:21:35.067Z,18.10
2018-04-23T04:24:04.768Z,18.50
2018-04-23T04:26:36.332Z,18.80
2018-04-23T04:29:06.053Z,18.80
2018-04-23T04:31:38.034Z,18.90
2018-04-23T04:34:08.077Z,18.90
2018-04-23T04:36:38.878Z,18.90
2018-04-23T04:39:09.136Z,18.80
2018-04-23T04:41:39.705Z,18.70
2018-04-23T04:44:10.678Z,18.70
2018-04-23T04:46:42.105Z,18.70
2018-04-23T04:49:12.735Z,18.60
2018-04-23T04:51:42.345Z,18.60
2018-04-23T04:54:12.756Z,17.40
2018-04-23T04:56:44.211Z,19.60
2018-04-23T04:59:14.817Z,19.30
2018-04-23T05:01:45.880Z,17.50
2018-04-23T05:04:16.440Z,19.20
2018-04-23T05:06:46.232Z,19.20
2018-04-23T05:09:17.557Z,19.40
2018-04-23T05:11:48.610Z,19.40
2018-04-23T05:14:19.121Z,19.40
2018-04-23T05:16:49.431Z,19.40
2018-04-23T05:19:21.255Z,18.00
2018-04-23T05:21:55.360Z,19.20
2018-04-23T05:24:25.554Z,19.10
2018-04-23T05:26:57.075Z,19.40
2018-04-23T05:29:27.852Z,20.10
2018-04-23T05:31:59.339Z,19.40
2018-04-23T05:34:29.480Z,19.40
2018-04-23T05:36:59.627Z,19.70
2018-04-23T05:39:31.436Z,19.10
2018-04-23T05:42:01.798Z,20.10
2018-04-23T05:44:32.008Z,20.40
2018-04-23T05:47:04.951Z,21.00
2018-04-23T05:49:35.435Z,21.60
2018-04-23T05:52:13.294Z,22.00
2018-04-23T05:54:43.450Z,22.40
2018-04-23T05:57:14.721Z,22.00
2018-04-23T05:59:45.426Z,22.60
2018-04-23T06:02:16.875Z,23.00
2018-04-23T06:04:47.837Z,22.90
2018-04-23T06:07:19.083Z,22.20
2018-04-23T06:09:54.902Z,22.10
2018-04-23T06:12:33.685Z,22.10
2018-04-23T06:15:14.611Z,22.10
2018-04-23T06:17:53.926Z,22.30
2018-04-23T06:20:30.487Z,22.30
2018-04-23T06:23:08.294Z,22.20
2018-04-23T06:25:47.588Z,22.30
2018-04-23T06:28:28.154Z,22.40
2018-04-23T06:31:09.654Z,22.10
2018-04-23T06:33:50.903Z,22.00
2018-04-23T06:36:32.788Z,21.40
2018-04-23T06:39:13.315Z,21.20
2018-04-23T06:41:51.118Z,21.70
2018-04-23T06:44:23.410Z,21.70
2018-04-23T06:46:59.897Z,21.80
2018-04-23T06:49:32.295Z,20.90
2018-04-23T06:52:09.456Z,20.90
2018-04-23T06:54:45.300Z,19.80
2018-04-23T06:57:17.860Z,19.80
2018-04-23T06:59:52.490Z,19.80
2018-04-23T07:02:34.465Z,20.00
2018-04-23T07:05:11.712Z,20.30
2018-04-23T07:07:55.968Z,20.70
2018-04-23T07:10:29.122Z,20.80
2018-04-23T07:12:59.812Z,21.50
2018-04-23T07:15:33.333Z,21.60
2018-04-23T07:18:03.511Z,21.40
2018-04-23T07:20:34.327Z,21.40
2018-04-23T07:23:13.473Z,21.40
2018-04-23T07:25:44.849Z,21.40
2018-04-23T07:28:14.969Z,21.40
2018-04-23T07:30:48.786Z,21.50
2018-04-23T07:33:24.541Z,21.50
2018-04-23T07:36:05.925Z,21.30
2018-04-23T07:38:38.886Z,21.10
2018-04-23T07:41:14.512Z,21.40
2018-04-23T07:43:56.078Z,21.60
2018-04-23T07:46:36.411Z,21.60
2018-04-23T07:49:12.452Z,21.10
2018-04-23T07:51:48.897Z,21.40
2018-04-23T07:54:26.171Z,22.30
2018-04-23T07:57:00.453Z,22.60
2018-04-23T07:59:34.501Z,22.50
2018-04-23T08:02:08.430Z,22.10
2018-04-23T08:04:46.473Z,22.10
2018-04-23T08:07:23.727Z,22.10
2018-04-23T08:09:59.458Z,22.10
2018-04-23T08:12:40.583Z,22.30
2018-04-23T08:15:23.784Z,22.30
2018-04-23T08:17:56.961Z,22.20
2018-04-23T08:20:32.830Z,22.10
2018-04-23T08:23:07.789Z,21.00
2018-04-23T08:25:42.205Z,20.50
2018-04-23T08:28:14.214Z,20.60
2018-04-23T08:30:51.550Z,20.90
2018-04-23T08:33:25.306Z,20.80
2018-04-23T08:39:08.399Z,20.70
2018-04-23T08:41:41.443Z,20.70
2018-04-23T08:44:19.356Z,21.30
2018-04-23T08:46:55.795Z,21.40
2018-04-23T08:49:34.849Z,21.40
2018-04-23T08:52:10.691Z,21.50
2018-04-23T08:54:45.624Z,21.50
2018-04-23T08:57:26.520Z,21.50
2018-04-23T09:00:08.420Z,22.00
2018-04-23T09:02:51.372Z,22.20
2018-04-23T09:05:25.038Z,22.10
2018-04-23T09:08:01.115Z,22.10
2018-04-23T09:10:39.154Z,22.10
2018-04-23T09:13:13.015Z,21.70
2018-04-23T09:15:46.065Z,21.80
2018-04-23T09:18:17.151Z,22.00
2018-04-23T09:20:47.188Z,21.80
2018-04-23T09:23:19.177Z,21.50
2018-04-23T09:25:52.888Z,21.80
2018-04-23T09:28:23.731Z,22.20
2018-04-23T09:30:55.667Z,22.50
2018-04-23T09:33:25.604Z,22.50
2018-04-23T09:35:55.678Z,22.80
2018-04-23T09:38:26.273Z,23.00
2018-04-23T09:40:57.077Z,22.40
2018-04-23T09:43:27.689Z,22.40
2018-04-23T09:46:02.001Z,22.40
2018-04-23T09:48:32.208Z,22.40
2018-04-23T09:51:02.417Z,22.50
2018-04-23T09:53:35.838Z,22.40
2018-04-23T09:56:10.148Z,22.40
2018-04-23T09:58:40.176Z,22.10
2018-04-23T10:01:19.525Z,22.30
2018-04-23T10:03:52.815Z,22.40
2018-04-23T10:06:28.777Z,22.20
2018-04-23T10:08:59.941Z,22.10
2018-04-23T10:11:37.239Z,22.20
2018-04-23T10:14:10.417Z,22.10
2018-04-23T10:16:42.933Z,22.10
2018-04-23T10:19:15.659Z,21.40
2018-04-23T10:21:47.019Z,21.40
2018-04-23T10:24:21.247Z,21.50
2018-04-23T10:26:53.381Z,21.20
2018-04-23T10:29:26.350Z,21.50
2018-04-23T10:31:58.459Z,21.50
2018-04-23T10:34:29.667Z,22.00
2018-04-23T10:37:04.951Z,22.40
2018-04-23T10:39:36.666Z,22.30
2018-04-23T10:42:09.844Z,21.90
2018-04-23T10:44:41.223Z,21.50
2018-04-23T10:47:15.777Z,21.60
2018-04-23T10:49:49.766Z,21.90
2018-04-23T10:52:21.872Z,22.30
2018-04-23T10:54:53.715Z,21.80
2018-04-23T10:57:24.286Z,21.90
2018-04-23T10:59:56.045Z,22.00
2018-04-23T11:02:29.525Z,21.80
2018-04-23T11:05:01.323Z,22.30
2018-04-23T11:07:35.489Z,22.30
2018-04-23T11:10:07.522Z,22.10
2018-04-23T11:12:38.536Z,22.10
2018-04-23T11:15:12.218Z,22.00
2018-04-23T11:17:43.014Z,21.70
2018-04-23T11:20:14.096Z,21.70
2018-04-23T11:22:44.859Z,21.70
2018-04-23T11:25:16.291Z,21.70
2018-04-23T11:27:47.772Z,22.00
2018-04-23T11:30:18.728Z,21.90
2018-04-23T11:32:52.613Z,21.80
2018-04-23T11:35:23.021Z,21.50
2018-04-23T11:37:53.401Z,21.80
2018-04-23T11:40:24.967Z,22.20
2018-04-23T11:43:00.129Z,22.70
2018-04-23T11:45:35.445Z,22.70
2018-04-23T11:48:10.401Z,23.30
2018-04-23T11:50:42.247Z,23.30
2018-04-23T11:53:13.488Z,23.00
2018-04-23T11:55:44.356Z,23.40
2018-04-23T11:58:15.792Z,23.40
2018-04-23T12:00:46.701Z,23.40
2018-04-23T12:03:18.306Z,23.50
2018-04-23T12:05:48.368Z,23.70
2018-04-23T12:08:28.835Z,24.30
2018-04-23T12:11:04.137Z,24.30
2018-04-23T12:13:42.334Z,24.10
2018-04-23T12:16:15.014Z,23.90
2018-04-23T12:18:50.445Z,23.70
2018-04-23T12:21:21.482Z,23.60
2018-04-23T12:23:53.068Z,23.50
2018-04-23T12:26:25.609Z,23.50
2018-04-23T12:28:59.170Z,23.90
2018-04-23T12:31:33.308Z,23.90
2018-04-23T12:34:12.047Z,22.40
2018-04-23T12:36:44.214Z,23.30
2018-04-23T12:39:14.629Z,23.60
2018-04-23T12:41:49.614Z,23.90
2018-04-23T12:44:20.301Z,23.80
2018-04-23T12:46:51.036Z,23.30
2018-04-23T12:49:22.477Z,22.90
2018-04-23T12:51:55.717Z,22.90
2018-04-23T12:54:26.105Z,22.90
2018-04-23T12:56:58.225Z,23.20
2018-04-23T12:59:31.766Z,23.20
2018-04-23T13:02:06.639Z,23.30
2018-04-23T13:04:39.096Z,23.30
2018-04-23T13:07:10.351Z,23.60
2018-04-23T13:09:41.628Z,23.10
2018-04-23T13:12:16.693Z,23.00
2018-04-23T13:14:46.760Z,23.00
2018-04-23T13:17:18.953Z,22.90
2018-04-23T13:19:54.473Z,23.10
2018-04-23T13:22:31.255Z,22.90
2018-04-23T13:25:05.335Z,22.40
2018-04-23T13:27:45.031Z,22.40
2018-04-23T13:30:16.563Z,21.50
2018-04-23T13:32:47.594Z,21.60
2018-04-23T13:35:22.130Z,22.20
2018-04-23T13:37:53.665Z,22.20
2018-04-23T13:40:25.986Z,22.50
2018-04-23T13:43:05.397Z,22.30
2018-04-23T13:45:38.404Z,22.20
2018-04-23T13:48:11.237Z,22.30
2018-04-23T13:50:44.130Z,22.60
2018-04-23T13:53:17.326Z,22.10
2018-04-23T13:55:52.784Z,22.40
2018-04-23T13:58:26.040Z,21.80
2018-04-23T14:00:59.316Z,22.70
2018-04-23T14:03:31.316Z,22.60
2018-04-23T14:06:03.444Z,22.80
2018-04-23T14:08:38.299Z,22.90
2018-04-23T14:11:11.181Z,22.90
2018-04-23T14:13:44.120Z,23.00
2018-04-23T14:16:15.087Z,23.00
2018-04-23T14:18:49.894Z,22.90
2018-04-23T14:21:21.694Z,22.90
2018-04-23T14:23:55.095Z,23.00
2018-04-23T14:26:26.792Z,22.90
2018-04-23T14:29:00.193Z,23.00
2018-04-23T14:31:31.278Z,23.10
2018-04-23T14:34:07.129Z,22.90
2018-04-23T14:36:39.363Z,22.90
2018-04-23T14:39:11.910Z,23.30
2018-04-23T14:41:45.979Z,23.30
2018-04-23T14:44:19.949Z,23.10
2018-04-23T14:46:52.305Z,23.10
2018-04-23T14:49:25.854Z,23.00
2018-04-23T14:52:00.088Z,22.70
2018-04-23T14:54:36.453Z,22.90
2018-04-23T14:57:09.158Z,22.50
2018-04-23T14:59:39.857Z,22.50
2018-04-23T15:02:10.607Z,22.50
2018-04-23T15:04:44.288Z,22.50
2018-04-23T15:07:24.927Z,22.50
2018-04-23T15:10:03.422Z,22.40
2018-04-23T15:12:35.307Z,22.50
2018-04-23T15:15:06.750Z,22.50
2018-04-23T15:17:37.354Z,21.80
2018-04-23T15:20:12.055Z,21.70
2018-04-23T15:22:48.095Z,22.00
2018-04-23T15:25:21.513Z,22.00
2018-04-23T15:27:52.920Z,23.00
2018-04-23T15:30:24.638Z,22.20
2018-04-23T15:32:55.505Z,22.30
2018-04-23T15:35:28.249Z,21.90
2018-04-23T15:37:59.881Z,21.90
2018-04-23T15:40:30.948Z,21.90
2018-04-23T15:43:05.761Z,22.10
2018-04-23T15:45:37.520Z,22.50
2018-04-23T15:48:09.390Z,22.60
2018-04-23T15:50:43.703Z,22.20
2018-04-23T15:53:17.071Z,22.20
2018-04-23T15:55:49.153Z,22.00
2018-04-23T15:58:20.955Z,21.40
2018-04-23T16:00:53.787Z,21.30
2018-04-23T16:03:26.472Z,21.10
2018-04-23T16:05:57.075Z,21.10
2018-04-23T16:08:27.212Z,21.10
2018-04-23T16:10:58.104Z,21.30
2018-04-23T16:13:30.261Z,21.60
2018-04-23T16:16:00.365Z,21.80
2018-04-23T16:18:31.622Z,21.30
2018-04-23T16:21:02.212Z,21.30
2018-04-23T16:23:34.011Z,21.20
2018-04-23T16:26:05.414Z,21.60
2018-04-23T16:28:35.215Z,21.60
2018-04-23T16:31:05.894Z,21.00
2018-04-23T16:33:37.182Z,21.30
2018-04-23T16:36:07.817Z,21.70
2018-04-23T16:38:38.010Z,21.50
2018-04-23T16:41:09.384Z,21.80
2018-04-23T16:43:41.849Z,21.90
2018-04-23T16:46:13.455Z,21.70
2018-04-23T16:48:43.419Z,21.70
2018-04-23T16:51:13.303Z,21.40
2018-04-23T16:53:43.391Z,21.20
2018-04-23T16:56:15.279Z,20.90
2018-04-23T16:58:47.334Z,20.60
2018-04-23T17:01:18.529Z,20.70
2018-04-23T17:03:49.304Z,20.60
2018-04-23T17:06:20.404Z,20.20
2018-04-23T17:08:51.337Z,20.20
2018-04-23T17:11:23.715Z,20.10
2018-04-23T17:13:55.434Z,19.90
2018-04-23T17:16:25.745Z,19.80
2018-04-23T17:18:56.976Z,19.80
2018-04-23T17:21:27.541Z,19.80
2018-04-23T17:23:58.121Z,19.80
2018-04-23T17:26:31.263Z,19.60
2018-04-23T17:29:04.170Z,19.80
2018-04-23T17:31:37.236Z,19.80
2018-04-23T17:34:08.456Z,19.20
2018-04-23T17:36:40.446Z,19.10
2018-04-23T17:39:11.494Z,19.10
2018-04-23T17:41:43.119Z,19.20
2018-04-23T17:44:15.157Z,19.10
2018-04-23T17:46:46.722Z,18.20
2018-04-23T17:49:18.120Z,19.00
2018-04-23T17:51:48.899Z,18.80
2018-04-23T17:54:19.837Z,19.20
2018-04-23T17:56:49.969Z,19.20
2018-04-23T17:59:21.805Z,19.40
2018-04-23T18:01:53.444Z,19.60
2018-04-23T18:04:23.538Z,19.50
2018-04-23T18:06:54.667Z,19.50
2018-04-23T18:09:24.917Z,19.50
2018-04-23T18:11:55.704Z,19.50
2018-04-23T18:14:26.087Z,19.50
2018-04-23T18:16:56.227Z,19.50
2018-04-23T18:19:27.051Z,19.10
2018-04-23T18:21:57.469Z,19.10
2018-04-23T18:25:47.424Z,19.00
2018-04-23T18:28:18.261Z,18.00
2018-04-23T18:30:49.251Z,18.40
2018-04-23T18:33:19.703Z,17.70
2018-04-23T18:35:49.860Z,18.60
2018-04-23T18:38:21.356Z,19.00
2018-04-23T18:40:51.441Z,18.90
2018-04-23T18:43:22.056Z,19.10
2018-04-23T18:45:52.954Z,19.20
2018-04-23T18:48:23.599Z,19.20
2018-04-23T18:50:53.684Z,19.30
2018-04-23T18:53:23.696Z,19.40
2018-04-23T18:55:54.078Z,19.30
2018-04-23T18:58:25.378Z,19.20
2018-04-23T19:00:55.216Z,19.20
2018-04-23T19:03:25.629Z,19.10
2018-04-23T19:05:55.988Z,19.00
2018-04-23T19:08:26.028Z,19.60
2018-04-23T19:10:56.859Z,18.70
2018-04-23T19:13:27.675Z,18.80
2018-04-23T19:15:58.565Z,18.80
2018-04-23T19:18:30.929Z,18.80
2018-04-23T19:21:01.584Z,18.80
2018-04-23T19:23:32.099Z,18.70
2018-04-23T19:26:02.736Z,18.70
2018-04-23T19:28:34.051Z,18.50
2018-04-23T19:31:04.821Z,18.30
2018-04-23T19:33:35.303Z,18.20
2018-04-23T19:36:06.497Z,18.00
2018-04-23T19:38:38.397Z,18.00
2018-04-23T19:41:08.500Z,17.80
2018-04-23T19:43:39.989Z,17.70
2018-04-23T19:46:10.952Z,17.60
2018-04-23T19:48:42.095Z,17.70
2018-04-23T19:51:12.861Z,17.70
2018-04-23T19:53:42.834Z,17.70
2018-04-23T19:56:13.630Z,17.50
2018-04-23T19:58:44.101Z,17.50
2018-04-23T20:01:13.965Z,17.30
2018-04-23T20:03:44.958Z,17.30
2018-04-23T20:06:25.354Z,17.30
2018-04-23T20:08:55.252Z,17.30
2018-04-23T20:11:25.136Z,17.30
2018-04-23T20:13:55.951Z,17.30
2018-04-23T20:16:26.106Z,17.30
2018-04-23T20:18:56.301Z,17.30
2018-04-23T20:21:26.465Z,17.20
2018-04-23T20:23:57.035Z,17.20
2018-04-23T20:26:27.501Z,17.20
2018-04-23T20:28:57.659Z,17.20
2018-04-23T20:31:29.561Z,17.20
2018-04-23T20:34:00.642Z,17.20
2018-04-23T20:36:31.198Z,17.20
2018-04-23T20:39:01.932Z,17.10
2018-04-23T20:41:32.088Z,17.10
2018-04-23T20:44:04.402Z,16.90
2018-04-23T20:46:35.248Z,16.90
2018-04-23T20:49:06.309Z,16.80
2018-04-23T20:51:36.431Z,16.80
2018-04-23T20:54:06.641Z,16.70
2018-04-23T20:56:37.076Z,16.60
2018-04-23T20:59:08.990Z,16.50
2018-04-23T21:01:38.912Z,16.40
2018-04-23T21:04:08.719Z,16.40
2018-04-23T21:06:39.465Z,16.40
2018-04-23T21:09:09.452Z,16.30
2018-04-23T21:11:40.581Z,16.20
2018-04-23T21:14:10.811Z,16.10
2018-04-23T21:16:40.679Z,16.20
2018-04-23T21:19:10.795Z,16.20
2018-04-23T21:21:40.821Z,17.40
2018-04-23T21:24:10.765Z,16.10
2018-04-23T21:26:40.777Z,16.00
2018-04-23T21:29:11.002Z,16.00
2018-04-23T21:31:41.786Z,15.90
2018-04-23T21:34:11.496Z,15.80
2018-04-23T21:36:42.079Z,15.80
2018-04-23T21:39:12.453Z,15.80
2018-04-23T21:41:42.378Z,15.70
2018-04-23T21:44:12.103Z,15.60
2018-04-23T21:46:42.494Z,15.60
2018-04-23T21:49:13.523Z,15.40
2018-04-23T21:51:44.249Z,15.40
2018-04-23T21:54:14.243Z,15.40
2018-04-23T21:56:45.515Z,15.00
2018-04-23T21:59:16.487Z,16.70
2018-04-23T22:01:47.481Z,13.50
2018-04-23T22:04:18.349Z,15.10
2018-04-23T22:06:48.572Z,15.10
2018-04-23T22:09:18.352Z,15.10
2018-04-23T22:11:49.446Z,15.00
2018-04-23T22:14:19.747Z,15.00
2018-04-23T22:16:49.591Z,15.10
2018-04-23T22:19:19.698Z,15.10
2018-04-23T22:21:50.722Z,15.20
2018-04-23T22:24:20.607Z,15.20
2018-04-23T22:26:50.616Z,15.00
2018-04-23T22:29:21.132Z,14.80
2018-04-23T22:31:50.872Z,14.80
2018-04-23T22:34:21.448Z,14.70
2018-04-23T22:36:51.500Z,14.70
2018-04-23T22:39:23.237Z,14.70
2018-04-23T22:41:53.052Z,14.70
2018-04-23T22:44:24.537Z,14.80
2018-04-23T22:46:56.110Z,14.70
2018-04-23T22:49:25.850Z,14.60
2018-04-23T22:51:56.601Z,14.70
2018-04-23T22:54:27.742Z,14.40
2018-04-23T22:56:57.718Z,14.40
2018-04-23T22:59:28.605Z,14.40
2018-04-23T23:01:58.867Z,14.40
2018-04-23T23:04:28.904Z,14.50
2018-04-23T23:06:59.254Z,14.50
2018-04-23T23:09:29.651Z,14.60
2018-04-23T23:11:59.927Z,14.60
2018-04-23T23:14:30.826Z,14.60
2018-04-23T23:17:01.698Z,13.70
2018-04-23T23:19:33.073Z,14.60
2018-04-23T23:22:03.022Z,14.50
2018-04-23T23:24:33.442Z,14.40
2018-04-23T23:27:04.021Z,14.30
2018-04-23T23:29:34.595Z,14.30
2018-04-23T23:32:05.559Z,14.30
2018-04-23T23:34:35.558Z,14.30
2018-04-23T23:37:06.459Z,14.30
2018-04-23T23:39:36.655Z,14.30
2018-04-23T23:42:06.513Z,14.20
2018-04-23T23:44:37.356Z,14.10
2018-04-23T23:47:08.855Z,13.80
2018-04-23T23:49:39.639Z,14.00
2018-04-23T23:52:10.781Z,14.00
2018-04-23T23:54:41.715Z,14.10
2018-04-23T23:57:12.732Z,14.00
2018-04-23T23:59:43.281Z,14.00
